createdAt,value
2018-04-27T07:05:46.261Z,1011.88
2018-04-27T07:06:46.174Z,1011.86
2018-04-27T07:07:46.098Z,1011.90
2018-04-27T07:08:46.023Z,1011.89
2018-04-27T07:09:45.937Z,1011.85
2018-04-27T07:10:45.861Z,1011.84
2018-04-27T07:11:45.776Z,1011.87
2018-04-27T07:12:45.700Z,1011.89
2018-04-27T07:13:45.613Z,1011.88
2018-04-27T07:14:45.538Z,1011.92
2018-04-27T07:15:45.450Z,1011.91
2018-04-27T07:16:45.376Z,1011.92
2018-04-27T07:17:45.300Z,1011.95
2018-04-27T07:18:45.213Z,1011.96
2018-04-27T07:19:45.138Z,1011.95
2018-04-27T07:20:45.052Z,1012.01
2018-04-27T07:21:44.975Z,1011.97
2018-04-27T07:22:44.900Z,1011.96
2018-04-27T07:23:44.815Z,1011.93
2018-04-27T07:24:44.739Z,1011.95
2018-04-27T07:25:44.664Z,1011.92
2018-04-27T07:26:44.590Z,1011.96
2018-04-27T07:27:44.501Z,1011.96
2018-04-27T07:28:44.426Z,1011.94
2018-04-27T07:29:44.351Z,1011.92
2018-04-27T07:30:44.267Z,1011.91
2018-04-27T07:31:44.189Z,1011.97
2018-04-27T07:32:44.116Z,1011.90
2018-04-27T07:33:44.040Z,1011.93
2018-04-27T07:34:43.952Z,1011.96
2018-04-27T07:35:43.879Z,1011.95
2018-04-27T07:36:43.802Z,1012.00
2018-04-27T07:37:43.727Z,1011.97
2018-04-27T07:38:43.641Z,1011.94
2018-04-27T07:39:43.829Z,1012.00
2018-04-27T07:40:43.490Z,1011.97
2018-04-27T07:41:43.418Z,1011.91
2018-04-27T07:42:43.340Z,1011.92
2018-04-27T07:43:43.266Z,1011.89
2018-04-27T07:44:43.191Z,1011.90
2018-04-27T07:45:43.116Z,1011.87
2018-04-27T07:46:43.027Z,1011.89
2018-04-27T07:47:42.953Z,1011.89
2018-04-27T07:48:42.877Z,1011.91
2018-04-27T07:49:42.818Z,1011.92
2018-04-27T07:50:42.727Z,1011.89
2018-04-27T07:51:42.655Z,1011.90
2018-04-27T07:52:42.578Z,1011.91
2018-04-27T07:53:42.516Z,1011.96
2018-04-27T07:54:42.417Z,1011.88
2018-04-27T07:55:42.342Z,1011.91
2018-04-27T07:56:42.266Z,1011.89
2018-04-27T07:57:42.196Z,1011.90
2018-04-27T07:58:42.117Z,1011.90
2018-04-27T07:59:42.042Z,1011.88
2018-04-27T08:00:41.967Z,1011.90
2018-04-27T08:01:41.893Z,1011.94
2018-04-27T08:02:41.817Z,1011.93
2018-04-27T08:03:41.743Z,1011.93
2018-04-27T08:04:41.668Z,1011.91
2018-04-27T08:05:41.594Z,1011.90
2018-04-27T08:06:41.520Z,1011.89
2018-04-27T08:07:41.432Z,1011.88
2018-04-27T08:08:41.368Z,1011.91
2018-04-27T08:09:41.281Z,1012.03
2018-04-27T08:10:41.206Z,1011.98
2018-04-27T08:11:41.132Z,1011.98
2018-04-27T08:12:41.068Z,1011.96
2018-04-27T08:13:40.986Z,1011.91
2018-04-27T08:14:40.907Z,1011.94
2018-04-27T08:15:40.832Z,1011.93
2018-04-27T08:16:40.769Z,1011.88
2018-04-27T08:17:40.698Z,1011.90
2018-04-27T08:18:40.657Z,1011.91
2018-04-27T08:19:40.794Z,1011.95
2018-04-27T08:20:40.469Z,1011.95
2018-04-27T08:21:40.394Z,1011.94
2018-04-27T08:22:40.320Z,1011.96
2018-04-27T08:23:40.249Z,1011.95
2018-04-27T08:24:40.249Z,1012.04
2018-04-27T08:25:40.095Z,1012.02
2018-04-27T08:26:40.020Z,1012.00
2018-04-27T08:27:39.945Z,1012.01
2018-04-27T08:28:39.874Z,1012.01
2018-04-27T08:29:39.807Z,1012.01
2018-04-27T08:30:39.732Z,1011.95
2018-04-27T08:31:39.657Z,1011.98
2018-04-27T08:32:39.595Z,1011.98
2018-04-27T08:33:39.507Z,1011.97
2018-04-27T08:34:39.431Z,1011.95
2018-04-27T08:35:39.358Z,1012.00
2018-04-27T08:36:39.295Z,1012.04
2018-04-27T08:37:39.224Z,1012.01
2018-04-27T08:38:39.146Z,1011.95
2018-04-27T08:39:39.070Z,1011.98
2018-04-27T08:40:38.998Z,1011.93
2018-04-27T08:41:38.921Z,1011.93
2018-04-27T08:42:38.858Z,1011.96
2018-04-27T08:43:38.796Z,1011.93
2018-04-27T08:44:38.708Z,1011.95
2018-04-27T08:45:38.633Z,1011.93
2018-04-27T08:46:38.559Z,1011.94
2018-04-27T08:47:38.486Z,1011.94
2018-04-27T08:48:38.422Z,1011.93
2018-04-27T08:49:38.348Z,1011.91
2018-04-27T08:50:38.274Z,1011.92
2018-04-27T08:51:38.205Z,1011.95
2018-04-27T08:52:38.149Z,1011.90
2018-04-27T08:53:38.059Z,1011.94
2018-04-27T08:54:37.985Z,1011.92
2018-04-27T08:55:37.910Z,1011.93
2018-04-27T08:56:37.852Z,1011.93
2018-04-27T08:57:37.775Z,1011.92
2018-04-27T08:58:37.699Z,1011.85
2018-04-27T08:59:37.627Z,1011.86
2018-04-27T09:00:37.563Z,1011.92
2018-04-27T09:01:37.486Z,1011.86
2018-04-27T09:02:37.415Z,1011.91
2018-04-27T09:03:37.350Z,1011.89
2018-04-27T09:04:37.275Z,1011.87
2018-04-27T09:05:37.201Z,1011.87
2018-04-27T09:06:37.143Z,1011.86
2018-04-27T09:07:37.063Z,1011.87
2018-04-27T09:08:36.988Z,1011.96
2018-04-27T09:09:36.915Z,1011.88
2018-04-27T09:10:36.852Z,1011.90
2018-04-27T09:11:36.778Z,1011.87
2018-04-27T09:12:36.713Z,1011.89
2018-04-27T09:13:36.639Z,1011.86
2018-04-27T09:14:36.564Z,1011.90
2018-04-27T09:15:36.503Z,1011.86
2018-04-27T09:16:36.428Z,1011.82
2018-04-27T09:17:36.360Z,1011.85
2018-04-27T09:18:36.289Z,1011.87
2018-04-27T09:19:36.215Z,1011.81
2018-04-27T09:20:36.141Z,1011.77
2018-04-27T09:21:36.136Z,1011.78
2018-04-27T09:22:36.003Z,1011.76
2018-04-27T09:23:35.940Z,1011.81
2018-04-27T09:24:35.865Z,1011.79
2018-04-27T09:25:35.791Z,1011.76
2018-04-27T09:26:35.729Z,1011.83
2018-04-27T09:27:35.654Z,1011.83
2018-04-27T09:28:35.585Z,1011.78
2018-04-27T09:29:35.516Z,1011.67
2018-04-27T09:30:35.442Z,1011.66
2018-04-27T09:31:35.379Z,1011.62
2018-04-27T09:32:35.304Z,1011.55
2018-04-27T09:33:35.230Z,1011.64
2018-04-27T09:34:35.180Z,1011.52
2018-04-27T09:35:35.091Z,1011.57
2018-04-27T09:36:35.017Z,1011.53
2018-04-27T09:37:34.956Z,1011.56
2018-04-27T09:38:34.880Z,1011.51
2018-04-27T09:39:34.804Z,1011.75
2018-04-27T09:40:34.730Z,1011.70
2018-04-27T09:41:34.671Z,1011.81
2018-04-27T09:42:34.592Z,1011.78
2018-04-27T09:43:34.517Z,1011.75
2018-04-27T09:44:34.442Z,1011.64
2018-04-27T09:45:34.368Z,1011.60
2018-04-27T09:46:34.293Z,1011.58
2018-04-27T09:47:34.219Z,1011.48
2018-04-27T09:48:34.155Z,1011.50
2018-04-27T09:49:34.080Z,1011.46
2018-04-27T09:50:34.006Z,1011.50
2018-04-27T09:51:33.931Z,1011.57
2018-04-27T09:52:33.857Z,1011.68
2018-04-27T09:53:33.781Z,1011.46
2018-04-27T09:54:33.706Z,1011.40
2018-04-27T09:55:33.632Z,1011.41
2018-04-27T09:56:33.557Z,1011.38
2018-04-27T09:57:33.518Z,1011.36
2018-04-27T09:58:33.406Z,1011.36
2018-04-27T09:59:33.331Z,1011.31
2018-04-27T10:00:33.256Z,1011.28
2018-04-27T10:01:33.181Z,1011.21
2018-04-27T10:02:33.108Z,1011.28
2018-04-27T10:03:33.031Z,1011.21
2018-04-27T10:04:32.957Z,1011.27
2018-04-27T10:05:32.881Z,1011.28
2018-04-27T10:06:32.807Z,1011.19
2018-04-27T10:07:32.742Z,1011.25
2018-04-27T10:08:32.656Z,1011.20
2018-04-27T10:09:32.582Z,1011.15
2018-04-27T10:10:32.507Z,1011.12
2018-04-27T10:11:32.432Z,1011.15
2018-04-27T10:12:32.357Z,1011.07
2018-04-27T10:13:32.282Z,1011.09
2018-04-27T10:14:32.208Z,1011.10
2018-04-27T10:15:32.137Z,1011.10
2018-04-27T10:16:32.058Z,1011.02
2018-04-27T10:17:31.984Z,1010.98
2018-04-27T10:18:31.895Z,1011.00
2018-04-27T10:19:31.820Z,1011.02
2018-04-27T10:20:31.749Z,1010.93
2018-04-27T10:21:31.683Z,1010.94
2018-04-27T10:22:31.595Z,1010.95
2018-04-27T10:23:31.520Z,1010.97
2018-04-27T10:26:55.611Z,1010.96
2018-04-27T10:27:55.547Z,1010.94
2018-04-27T10:28:55.461Z,1010.89
2018-04-27T10:29:55.387Z,1010.91
2018-04-27T10:30:55.313Z,1010.89
2018-04-27T10:31:55.235Z,1010.88
2018-04-27T10:32:55.160Z,1010.89
2018-04-27T10:33:55.088Z,1010.83
2018-04-27T10:34:55.010Z,1010.85
2018-04-27T10:35:54.934Z,1010.79
2018-04-27T10:36:54.860Z,1010.75
2018-04-27T10:37:54.785Z,1010.75
2018-04-27T10:38:54.698Z,1010.74
2018-04-27T10:39:54.634Z,1010.73
2018-04-27T10:40:54.547Z,1010.69
2018-04-27T10:41:54.472Z,1010.65
2018-04-27T10:42:54.399Z,1010.66
2018-04-27T10:43:54.322Z,1010.66
2018-04-27T10:44:54.247Z,1010.70
2018-04-27T10:45:54.172Z,1010.77
2018-04-27T10:46:54.097Z,1010.70
2018-04-27T10:47:54.023Z,1010.69
2018-04-27T10:48:53.948Z,1010.61
2018-04-27T10:49:53.871Z,1010.88
2018-04-27T10:50:53.797Z,1011.00
2018-04-27T10:51:53.722Z,1011.03
2018-04-27T10:52:53.647Z,1011.06
2018-04-27T10:53:53.572Z,1010.99
2018-04-27T10:54:53.498Z,1010.94
2018-04-27T10:55:53.423Z,1010.97
2018-04-27T10:56:53.351Z,1010.95
2018-04-27T10:57:53.285Z,1010.93
2018-04-27T10:58:53.210Z,1010.94
2018-04-27T10:59:53.137Z,1010.89
2018-04-27T11:00:53.062Z,1010.84
2018-04-27T11:01:52.998Z,1010.81
2018-04-27T11:02:52.927Z,1010.79
2018-04-27T11:03:52.862Z,1010.78
2018-04-27T11:04:52.788Z,1010.72
2018-04-27T11:05:52.724Z,1010.67
2018-04-27T11:06:52.649Z,1010.73
2018-04-27T11:07:52.588Z,1010.72
2018-04-27T11:08:52.514Z,1010.67
2018-04-27T11:09:52.454Z,1010.50
2018-04-27T11:10:52.417Z,1010.45
2018-04-27T11:11:52.314Z,1010.42
2018-04-27T11:12:52.251Z,1010.36
2018-04-27T11:13:52.176Z,1010.31
2018-04-27T11:14:52.114Z,1010.27
2018-04-27T11:15:52.056Z,1010.39
2018-04-27T11:16:52.175Z,1010.49
2018-04-27T11:17:51.915Z,1010.37
2018-04-27T11:18:51.840Z,1010.44
2018-04-27T11:19:51.783Z,1010.32
2018-04-27T11:20:51.704Z,1010.49
2018-04-27T11:21:51.648Z,1010.44
2018-04-27T11:22:51.578Z,1010.46
2018-04-27T11:23:51.502Z,1010.45
2018-04-27T11:24:51.445Z,1010.43
2018-04-27T11:25:51.370Z,1010.39
2018-04-27T11:26:51.303Z,1010.44
2018-04-27T11:27:51.229Z,1010.33
2018-04-27T11:28:51.168Z,1010.35
2018-04-27T11:29:51.104Z,1010.41
2018-04-27T11:30:51.034Z,1010.38
2018-04-27T11:31:50.969Z,1010.36
2018-04-27T11:32:50.892Z,1010.34
2018-04-27T11:33:50.833Z,1010.28
2018-04-27T11:34:50.769Z,1010.26
2018-04-27T11:35:50.693Z,1010.32
2018-04-27T11:36:50.630Z,1010.32
2018-04-27T11:37:50.569Z,1010.26
2018-04-27T11:38:50.493Z,1010.23
2018-04-27T11:39:50.431Z,1010.23
2018-04-27T11:40:50.369Z,1010.04
2018-04-27T11:41:50.306Z,1010.01
2018-04-27T11:42:50.231Z,1010.19
2018-04-27T11:43:50.170Z,1010.10
2018-04-27T11:44:50.106Z,1010.11
2018-04-27T11:45:50.031Z,1009.96
2018-04-27T11:46:49.969Z,1010.09
2018-04-27T11:47:49.959Z,1010.13
2018-04-27T11:48:49.831Z,1010.14
2018-04-27T11:49:49.770Z,1010.13
2018-04-27T11:50:49.707Z,1010.05
2018-04-27T11:51:49.632Z,1010.05
2018-04-27T11:52:49.569Z,1010.00
2018-04-27T11:53:49.497Z,1010.02
2018-04-27T11:54:49.431Z,1009.96
2018-04-27T11:55:49.358Z,1009.90
2018-04-27T11:56:49.295Z,1009.83
2018-04-27T11:57:49.232Z,1009.83
2018-04-27T11:58:49.161Z,1009.85
2018-04-27T11:59:49.095Z,1009.88
2018-04-27T12:00:49.059Z,1009.95
2018-04-27T12:01:49.020Z,1009.97
2018-04-27T12:02:48.884Z,1009.96
2018-04-27T12:03:48.820Z,1009.96
2018-04-27T12:04:48.749Z,1009.95
2018-04-27T12:05:48.684Z,1009.91
2018-04-27T12:06:48.607Z,1010.02
2018-04-27T12:07:48.546Z,1010.00
2018-04-27T12:08:48.470Z,1009.95
2018-04-27T12:09:48.409Z,1010.00
2018-04-27T12:10:48.333Z,1009.98
2018-04-27T12:11:48.271Z,1009.93
2018-04-27T12:12:48.197Z,1009.87
2018-04-27T12:13:48.133Z,1009.89
2018-04-27T12:14:48.058Z,1009.82
2018-04-27T12:15:47.984Z,1009.88
2018-04-27T12:16:47.922Z,1009.86
2018-04-27T12:17:47.846Z,1009.82
2018-04-27T12:18:47.784Z,1009.87
2018-04-27T12:19:47.710Z,1009.84
2018-04-27T12:20:47.647Z,1009.82
2018-04-27T12:21:47.577Z,1009.79
2018-04-27T12:22:47.508Z,1009.83
2018-04-27T12:23:47.435Z,1009.84
2018-04-27T12:24:47.372Z,1009.85
2018-04-27T12:25:47.298Z,1009.86
2018-04-27T12:26:47.236Z,1009.84
2018-04-27T12:27:47.160Z,1009.85
2018-04-27T12:28:47.097Z,1009.80
2018-04-27T12:29:47.023Z,1009.79
2018-04-27T12:30:46.967Z,1009.73
2018-04-27T12:31:46.973Z,1009.75
2018-04-27T12:32:46.827Z,1009.66
2018-04-27T12:33:46.777Z,1009.72
2018-04-27T12:34:46.687Z,1009.65
2018-04-27T12:35:46.624Z,1009.62
2018-04-27T12:36:46.548Z,1009.63
2018-04-27T12:37:46.485Z,1009.71
2018-04-27T12:38:46.495Z,1009.59
2018-04-27T12:39:46.352Z,1009.54
2018-04-27T12:40:46.315Z,1009.47
2018-04-27T12:41:46.211Z,1009.48
2018-04-27T12:42:46.140Z,1009.48
2018-04-27T12:43:46.077Z,1009.57
2018-04-27T12:44:46.005Z,1009.57
2018-04-27T12:45:45.938Z,1009.45
2018-04-27T12:46:45.875Z,1009.49
2018-04-27T12:47:45.786Z,1009.46
2018-04-27T12:48:45.726Z,1009.43
2018-04-27T12:49:45.650Z,1009.45
2018-04-27T12:50:45.576Z,1009.51
2018-04-27T12:51:45.512Z,1009.52
2018-04-27T12:52:45.438Z,1009.49
2018-04-27T12:53:45.376Z,1009.45
2018-04-27T12:54:45.288Z,1009.40
2018-04-27T12:55:45.226Z,1009.41
2018-04-27T12:56:45.151Z,1009.35
2018-04-27T12:57:45.077Z,1009.43
2018-04-27T12:58:45.013Z,1009.40
2018-04-27T12:59:44.950Z,1009.37
2018-04-27T13:00:44.877Z,1009.34
2018-04-27T13:01:44.801Z,1009.34
2018-04-27T13:02:44.727Z,1009.34
2018-04-27T13:03:44.664Z,1009.32
2018-04-27T13:04:44.590Z,1009.34
2018-04-27T13:05:44.513Z,1009.29
2018-04-27T13:06:44.453Z,1009.32
2018-04-27T13:07:44.378Z,1009.30
2018-04-27T13:08:44.302Z,1009.28
2018-04-27T13:09:44.239Z,1009.24
2018-04-27T13:10:44.164Z,1009.21
2018-04-27T13:11:44.090Z,1009.21
2018-04-27T13:12:44.016Z,1009.20
2018-04-27T13:13:43.954Z,1009.18
2018-04-27T13:14:43.879Z,1009.19
2018-04-27T13:15:43.804Z,1009.20
2018-04-27T13:16:43.728Z,1009.19
2018-04-27T13:17:43.670Z,1009.13
2018-04-27T13:18:43.591Z,1009.19
2018-04-27T13:19:43.515Z,1009.15
2018-04-27T13:20:43.444Z,1009.11
2018-04-27T13:21:43.365Z,1009.08
2018-04-27T13:22:43.291Z,1009.11
2018-04-27T13:23:43.220Z,1009.02
2018-04-27T13:24:43.154Z,1008.99
2018-04-27T13:25:43.086Z,1008.95
2018-04-27T13:26:43.005Z,1009.09
2018-04-27T13:27:42.929Z,1009.04
2018-04-27T13:28:42.855Z,1009.13
2018-04-27T13:29:42.784Z,1009.10
2018-04-27T13:30:42.704Z,1009.11
2018-04-27T13:31:42.629Z,1009.11
2018-04-27T13:32:42.566Z,1009.11
2018-04-27T13:33:42.491Z,1009.13
2018-04-27T13:34:42.416Z,1009.10
2018-04-27T13:35:42.343Z,1009.02
2018-04-27T13:36:42.281Z,1008.97
2018-04-27T13:37:42.192Z,1008.96
2018-04-27T13:38:42.118Z,1008.91
2018-04-27T13:39:42.042Z,1008.95
2018-04-27T13:40:41.971Z,1008.98
2018-04-27T13:41:41.892Z,1008.96
2018-04-27T13:42:41.817Z,1008.95
2018-04-27T13:43:41.743Z,1008.98
2018-04-27T13:44:41.668Z,1009.00
2018-04-27T13:45:41.593Z,1009.00
2018-04-27T13:46:41.532Z,1008.94
2018-04-27T13:47:41.444Z,1008.98
2018-04-27T13:48:41.370Z,1008.99
2018-04-27T13:49:41.306Z,1008.96
2018-04-27T13:50:41.233Z,1009.00
2018-04-27T13:51:41.159Z,1008.98
2018-04-27T13:52:41.082Z,1008.95
2018-04-27T13:53:41.007Z,1008.90
2018-04-27T13:54:40.932Z,1008.91
2018-04-27T13:55:40.858Z,1008.86
2018-04-27T13:56:40.782Z,1008.82
2018-04-27T13:57:40.711Z,1008.82
2018-04-27T13:58:40.633Z,1008.78
2018-04-27T13:59:40.558Z,1008.77
2018-04-27T14:00:40.487Z,1008.74
2018-04-27T14:01:40.408Z,1008.74
2018-04-27T14:02:40.389Z,1008.71
2018-04-27T14:03:40.258Z,1008.70
2018-04-27T14:04:40.183Z,1008.72
2018-04-27T14:05:40.190Z,1008.74
2018-04-27T14:06:40.034Z,1008.69
2018-04-27T14:07:39.958Z,1008.67
2018-04-27T14:08:39.884Z,1008.68
2018-04-27T14:09:39.885Z,1008.69
2018-04-27T14:10:39.734Z,1008.67
2018-04-27T14:11:39.662Z,1008.64
2018-04-27T14:12:39.584Z,1008.65
2018-04-27T14:13:39.510Z,1008.62
2018-04-27T14:14:39.434Z,1008.60
2018-04-27T14:15:39.361Z,1008.64
2018-04-27T14:16:39.285Z,1008.63
2018-04-27T14:17:39.219Z,1008.63
2018-04-27T14:18:39.135Z,1008.62
2018-04-27T14:19:39.061Z,1008.63
2018-04-27T14:20:38.985Z,1008.61
2018-04-27T14:21:38.914Z,1008.62
2018-04-27T14:22:38.836Z,1008.59
2018-04-27T14:23:38.761Z,1008.54
2018-04-27T14:24:38.698Z,1008.58
2018-04-27T14:25:38.622Z,1008.56
2018-04-27T14:26:38.549Z,1008.58
2018-04-27T14:27:38.473Z,1008.53
2018-04-27T14:28:38.398Z,1008.51
2018-04-27T14:29:38.340Z,1008.56
2018-04-27T14:30:38.252Z,1008.48
2018-04-27T14:31:38.174Z,1008.49
2018-04-27T14:32:38.098Z,1008.44
2018-04-27T14:33:38.023Z,1008.37
2018-04-27T14:34:37.950Z,1008.37
2018-04-27T14:35:37.873Z,1008.37
2018-04-27T14:36:37.812Z,1008.29
2018-04-27T14:37:37.727Z,1008.35
2018-04-27T14:38:37.649Z,1008.29
2018-04-27T14:39:37.573Z,1008.28
2018-04-27T14:40:37.512Z,1008.30
2018-04-27T14:41:37.424Z,1008.32
2018-04-27T14:42:37.349Z,1008.36
2018-04-27T14:43:37.274Z,1008.29
2018-04-27T14:44:37.200Z,1008.29
2018-04-27T14:45:37.128Z,1008.27
2018-04-27T14:46:37.072Z,1008.22
2018-04-27T14:47:36.964Z,1008.22
2018-04-27T14:48:36.899Z,1008.22
2018-04-27T14:49:36.813Z,1008.18
2018-04-27T14:50:36.738Z,1008.14
2018-04-27T14:51:36.663Z,1008.14
2018-04-27T14:52:36.603Z,1008.17
2018-04-27T14:53:36.518Z,1008.19
2018-04-27T14:54:36.439Z,1008.16
2018-04-27T14:55:36.363Z,1008.13
2018-04-27T14:56:36.288Z,1008.10
2018-04-27T14:57:36.215Z,1008.09
2018-04-27T14:58:36.141Z,1008.08
2018-04-27T14:59:36.075Z,1008.08
2018-04-27T15:00:35.989Z,1008.05
2018-04-27T15:01:35.922Z,1008.12
2018-04-27T15:02:35.839Z,1008.15
2018-04-27T15:03:35.766Z,1008.13
2018-04-27T15:04:35.689Z,1008.17
2018-04-27T15:05:35.614Z,1008.17
2018-04-27T15:06:35.539Z,1008.19
2018-04-27T15:07:35.464Z,1008.16
2018-04-27T15:08:35.390Z,1008.16
2018-04-27T15:09:35.304Z,1008.14
2018-04-27T15:10:35.227Z,1008.07
2018-04-27T15:11:35.152Z,1008.08
2018-04-27T15:12:35.091Z,1008.12
2018-04-27T15:13:35.002Z,1008.12
2018-04-27T15:14:34.928Z,1008.10
2018-04-27T15:15:34.852Z,1008.11
2018-04-27T15:16:34.777Z,1008.07
2018-04-27T15:17:34.702Z,1008.11
2018-04-27T15:18:34.627Z,1008.13
2018-04-27T15:19:34.552Z,1008.09
2018-04-27T15:20:34.491Z,1008.05
2018-04-27T15:21:34.403Z,1007.96
2018-04-27T15:22:34.331Z,1007.98
2018-04-27T15:23:34.241Z,1007.99
2018-04-27T15:24:34.167Z,1007.93
2018-04-27T15:25:34.091Z,1007.95
2018-04-27T15:26:34.020Z,1007.97
2018-04-27T15:27:33.948Z,1007.91
2018-04-27T15:28:33.867Z,1007.87
2018-04-27T15:29:33.792Z,1007.91
2018-04-27T15:30:33.718Z,1007.87
2018-04-27T15:31:33.642Z,1007.84
2018-04-27T15:32:33.569Z,1007.87
2018-04-27T15:33:33.481Z,1007.88
2018-04-27T15:34:33.404Z,1007.91
2018-04-27T15:35:33.329Z,1007.92
2018-04-27T15:36:33.254Z,1007.90
2018-04-27T15:37:33.179Z,1007.90
2018-04-27T15:38:33.107Z,1007.88
2018-04-27T15:39:33.029Z,1007.87
2018-04-27T15:40:32.956Z,1007.84
2018-04-27T15:41:32.880Z,1007.81
2018-04-27T15:42:32.805Z,1007.81
2018-04-27T15:43:32.729Z,1007.82
2018-04-27T15:44:32.643Z,1007.80
2018-04-27T15:45:32.568Z,1007.74
2018-04-27T15:46:32.495Z,1007.75
2018-04-27T15:47:32.423Z,1007.70
2018-04-27T15:48:32.345Z,1007.65
2018-04-27T15:49:32.269Z,1007.63
2018-04-27T15:50:32.194Z,1007.59
2018-04-27T15:51:32.119Z,1007.61
2018-04-27T15:52:32.038Z,1007.57
2018-04-27T15:53:31.957Z,1007.56
2018-04-27T15:54:31.881Z,1007.59
2018-04-27T15:55:31.806Z,1007.62
2018-04-27T15:56:31.731Z,1007.62
2018-04-27T15:57:31.665Z,1007.60
2018-04-27T15:58:31.585Z,1007.57
2018-04-27T15:59:31.507Z,1007.53
2018-04-27T16:00:31.421Z,1007.51
2018-04-27T16:01:31.345Z,1007.51
2018-04-27T16:02:31.270Z,1007.47
2018-04-27T16:03:31.195Z,1007.54
2018-04-27T16:04:31.120Z,1007.52
2018-04-27T16:05:31.047Z,1007.48
2018-04-27T16:06:30.972Z,1007.48
2018-04-27T16:07:30.896Z,1007.48
2018-04-27T16:08:30.820Z,1007.44
2018-04-27T16:09:30.787Z,1007.41
2018-04-27T16:10:30.658Z,1007.43
2018-04-27T16:11:30.583Z,1007.45
2018-04-27T16:12:30.508Z,1007.42
2018-04-27T16:13:30.434Z,1007.40
2018-04-27T16:14:30.358Z,1007.39
2018-04-27T16:15:30.283Z,1007.34
2018-04-27T16:16:30.197Z,1007.34
2018-04-27T16:17:30.121Z,1007.32
2018-04-27T16:18:30.048Z,1007.32
2018-04-27T16:19:29.971Z,1007.29
2018-04-27T16:20:29.897Z,1007.29
2018-04-27T16:21:29.823Z,1007.29
2018-04-27T16:22:29.750Z,1007.24
2018-04-27T16:23:29.672Z,1007.20
2018-04-27T16:24:29.603Z,1007.21
2018-04-27T16:25:29.510Z,1007.18
2018-04-27T16:26:29.438Z,1007.20
2018-04-27T16:27:29.373Z,1007.19
2018-04-27T16:28:29.284Z,1007.13
2018-04-27T16:29:29.210Z,1007.13
2018-04-27T16:30:29.135Z,1007.10
2018-04-27T16:31:29.061Z,1007.15
2018-04-27T16:32:28.986Z,1007.10
2018-04-27T16:33:28.900Z,1007.08
2018-04-27T16:34:28.824Z,1007.03
2018-04-27T16:35:28.749Z,1007.01
2018-04-27T16:36:28.674Z,1007.01
2018-04-27T16:37:28.600Z,1007.00
2018-04-27T16:38:28.525Z,1007.01
2018-04-27T16:39:28.449Z,1007.00
2018-04-27T16:40:28.362Z,1007.02
2018-04-27T16:41:28.301Z,1007.00
2018-04-27T16:42:28.212Z,1007.02
2018-04-27T16:43:28.136Z,1007.06
2018-04-27T16:44:28.061Z,1007.03
2018-04-27T16:45:28.000Z,1007.07
2018-04-27T16:46:27.913Z,1007.06
2018-04-27T16:47:27.838Z,1007.04
2018-04-27T16:48:27.762Z,1007.04
2018-04-27T16:49:27.676Z,1007.02
2018-04-27T16:50:27.600Z,1007.04
2018-04-27T16:51:27.525Z,1007.01
2018-04-27T16:52:27.451Z,1007.02
2018-04-27T16:53:27.376Z,1007.03
2018-04-27T16:54:27.378Z,1007.01
2018-04-27T16:55:27.212Z,1007.04
2018-04-27T16:56:27.138Z,1006.96
2018-04-27T16:57:27.064Z,1007.01
2018-04-27T16:58:27.001Z,1007.00
2018-04-27T16:59:26.913Z,1007.03
2018-04-27T17:00:26.838Z,1006.99
2018-04-27T17:01:26.768Z,1006.98
2018-04-27T17:02:26.677Z,1006.98
2018-04-27T17:03:26.603Z,1006.98
2018-04-27T17:04:26.533Z,1006.98
2018-04-27T17:05:26.452Z,1006.93
2018-04-27T17:06:26.377Z,1006.96
2018-04-27T17:07:26.291Z,1006.91
2018-04-27T17:08:26.214Z,1006.92
2018-04-27T17:09:26.179Z,1006.95
2018-04-27T17:10:26.064Z,1006.95
2018-04-27T17:11:25.992Z,1006.93
2018-04-27T17:12:25.915Z,1006.99
2018-04-27T17:13:25.916Z,1006.95
2018-04-27T17:14:25.787Z,1006.97
2018-04-27T17:15:25.679Z,1007.00
2018-04-27T17:16:25.605Z,1006.98
2018-04-27T17:17:25.528Z,1006.95
2018-04-27T17:18:25.453Z,1006.96
2018-04-27T17:19:25.426Z,1006.97
2018-04-27T17:20:25.307Z,1006.95
2018-04-27T17:21:25.216Z,1006.88
2018-04-27T17:22:25.140Z,1006.87
2018-04-27T17:23:25.066Z,1006.88
2018-04-27T17:24:25.005Z,1006.84
2018-04-27T17:25:24.909Z,1006.82
2018-04-27T17:26:24.829Z,1006.80
2018-04-27T17:27:24.765Z,1006.76
2018-04-27T17:28:24.681Z,1006.81
2018-04-27T17:29:24.605Z,1006.81
2018-04-27T17:30:24.531Z,1006.80
2018-04-27T17:31:24.441Z,1006.82
2018-04-27T17:32:24.367Z,1006.83
2018-04-27T17:33:24.305Z,1006.82
2018-04-27T17:34:24.225Z,1006.79
2018-04-27T17:35:24.181Z,1006.78
2018-04-27T17:36:24.067Z,1006.75
2018-04-27T17:37:23.980Z,1006.74
2018-04-27T17:38:23.906Z,1006.74
2018-04-27T17:39:23.831Z,1006.75
2018-04-27T17:40:23.802Z,1006.71
2018-04-27T17:41:23.682Z,1006.73
2018-04-27T17:42:23.593Z,1006.74
2018-04-27T17:43:23.597Z,1006.74
2018-04-27T17:44:23.498Z,1006.75
2018-04-27T17:45:23.368Z,1006.76
2018-04-27T17:46:23.293Z,1006.72
2018-04-27T17:47:23.207Z,1006.70
2018-04-27T17:48:23.132Z,1006.72
2018-04-27T17:49:23.060Z,1006.71
2018-04-27T17:50:22.987Z,1006.71
2018-04-27T17:51:22.895Z,1006.69
2018-04-27T17:52:22.821Z,1006.67
2018-04-27T17:53:22.751Z,1006.73
2018-04-27T17:54:22.669Z,1006.71
2018-04-27T17:55:22.594Z,1006.69
2018-04-27T17:56:22.507Z,1006.69
2018-04-27T17:57:22.434Z,1006.66
2018-04-27T17:58:22.358Z,1006.66
2018-04-27T17:59:22.355Z,1006.66
2018-04-27T18:00:22.208Z,1006.65
2018-04-27T18:01:22.122Z,1006.64
2018-04-27T18:02:22.045Z,1006.66
2018-04-27T18:03:21.982Z,1006.64
2018-04-27T18:04:21.895Z,1006.63
2018-04-27T18:05:21.820Z,1006.63
2018-04-27T18:06:21.745Z,1006.61
2018-04-27T18:07:21.659Z,1006.58
2018-04-27T18:08:21.584Z,1006.62
2018-04-27T18:09:21.509Z,1006.64
2018-04-27T18:10:21.421Z,1006.64
2018-04-27T18:11:21.346Z,1006.62
2018-04-27T18:12:21.284Z,1006.62
2018-04-27T18:13:21.185Z,1006.58
2018-04-27T18:14:21.112Z,1006.60
2018-04-27T18:15:21.035Z,1006.63
2018-04-27T18:16:20.960Z,1006.63
2018-04-27T18:17:20.873Z,1006.61
2018-04-27T18:18:20.796Z,1006.62
2018-04-27T18:19:20.722Z,1006.64
2018-04-27T18:20:20.655Z,1006.64
2018-04-27T18:21:20.561Z,1006.64
2018-04-27T18:22:20.486Z,1006.65
2018-04-27T18:23:20.410Z,1006.75
2018-04-27T18:24:20.335Z,1006.71
2018-04-27T18:25:20.249Z,1006.70
2018-04-27T18:26:20.172Z,1006.75
2018-04-27T18:27:20.101Z,1006.72
2018-04-27T18:28:20.023Z,1006.67
2018-04-27T18:29:19.936Z,1006.64
2018-04-27T18:30:19.863Z,1006.63
2018-04-27T18:31:19.787Z,1006.63
2018-04-27T18:32:19.711Z,1006.60
2018-04-27T18:33:19.677Z,1006.61
2018-04-27T18:34:19.549Z,1006.56
2018-04-27T18:35:19.474Z,1006.57
2018-04-27T18:36:19.399Z,1006.57
2018-04-27T18:37:19.311Z,1006.63
2018-04-27T18:38:19.236Z,1006.59
2018-04-27T18:39:19.183Z,1006.60
2018-04-27T18:40:19.079Z,1006.59
2018-04-27T18:41:19.000Z,1006.58
2018-04-27T18:42:18.939Z,1006.59
2018-04-27T18:43:18.854Z,1006.63
2018-04-27T18:44:18.766Z,1006.63
2018-04-27T18:45:18.690Z,1006.62
2018-04-27T18:46:18.614Z,1006.61
2018-04-27T18:47:18.540Z,1006.61
2018-04-27T18:48:18.450Z,1006.66
2018-04-27T18:49:18.375Z,1006.64
2018-04-27T18:50:18.303Z,1006.66
2018-04-27T18:51:18.213Z,1006.68
2018-04-27T18:52:18.139Z,1006.70
2018-04-27T18:53:18.069Z,1006.69
2018-04-27T18:54:17.975Z,1006.66
2018-04-27T18:55:17.904Z,1006.69
2018-04-27T18:56:17.839Z,1006.65
2018-04-27T18:57:17.772Z,1006.70
2018-04-27T18:58:17.665Z,1006.64
2018-04-27T18:59:17.589Z,1006.68
2018-04-27T19:00:17.515Z,1006.69
2018-04-27T19:01:17.494Z,1006.70
2018-04-27T19:02:17.352Z,1006.71
2018-04-27T19:03:17.279Z,1006.69
2018-04-27T19:04:17.194Z,1006.67
2018-04-27T19:05:17.116Z,1006.73
2018-04-27T19:06:17.040Z,1006.70
2018-04-27T19:07:16.952Z,1006.71
2018-04-27T19:08:16.877Z,1006.71
2018-04-27T19:09:16.802Z,1006.67
2018-04-27T19:10:16.727Z,1006.71
2018-04-27T19:11:16.640Z,1006.67
2018-04-27T19:12:16.566Z,1006.67